sensor_id;sensor_type;location;lat;lon;timestamp;temperature;humidity
292;DHT22;23311;48.776;9.162;2023-04-03T00:01:13;4.10;95.50
292;DHT22;23311;48.776;9.162;2023-04-03T00:03:41;4.00;95.50
292;DHT22;23311;48.776;9.162;2023-04-03T00:06:11;4.00;95.50
292;DHT22;23311;48.776;9.162;2023-04-03T00:08:40;4.00;95.50
292;DHT22;23311;48.776;9.162;2023-04-03T00:11:08;3.90;95.50
292;DHT22;23311;48.776;9.162;2023-04-03T00:13:37;3.90;95.50
292;DHT22;23311;48.776;9.162;2023-04-03T00:16:06;3.90;95.50
292;DHT22;23311;48.776;9.162;2023-04-03T00:18:36;3.90;95.50
292;DHT22;23311;48.776;9.162;2023-04-03T00:21:05;3.90;95.50
292;DHT22;23311;48.776;9.162;2023-04-03T00:23:34;3.90;95.50
292;DHT22;23311;48.776;9.162;2023-04-03T00:26:02;3.90;95.50
292;DHT22;23311;48.776;9.162;2023-04-03T00:28:30;4.00;95.50
292;DHT22;23311;48.776;9.162;2023-04-03T00:30:58;4.00;95.50
292;DHT22;23311;48.776;9.162;2023-04-03T00:33:27;4.00;95.50
292;DHT22;23311;48.776;9.162;2023-04-03T00:35:55;4.00;95.50
292;DHT22;23311;48.776;9.162;2023-04-03T00:38:23;4.00;95.50
292;DHT22;23311;48.776;9.162;2023-04-03T00:40:52;4.00;95.50
292;DHT22;23311;48.776;9.162;2023-04-03T00:43:22;4.00;95.50
292;DHT22;23311;48.776;9.162;2023-04-03T00:45:51;4.00;95.50
292;DHT22;23311;48.776;9.162;2023-04-03T00:48:22;3.90;95.50
292;DHT22;23311;48.776;9.162;2023-04-03T00:50:52;3.90;95.50
292;DHT22;23311;48.776;9.162;2023-04-03T00:53:23;3.80;95.50
292;DHT22;23311;48.776;9.162;2023-04-03T00:55:56;3.90;95.50
292;DHT22;23311;48.776;9.162;2023-04-03T00:58:28;3.90;95.50
292;DHT22;23311;48.776;9.162;2023-04-03T01:00:59;3.90;95.50
292;DHT22;23311;48.776;9.162;2023-04-03T01:03:31;3.90;95.50
292;DHT22;23311;48.776;9.162;2023-04-03T01:05:59;3.90;95.50
292;DHT22;23311;48.776;9.162;2023-04-03T01:08:27;3.80;95.50
292;DHT22;23311;48.776;9.162;2023-04-03T01:10:57;3.80;95.50
292;DHT22;23311;48.776;9.162;2023-04-03T01:13:27;3.80;95.50
292;DHT22;23311;48.776;9.162;2023-04-03T01:15:56;3.80;95.50
292;DHT22;23311;48.776;9.162;2023-04-03T01:18:25;3.80;95.50
292;DHT22;23311;48.776;9.162;2023-04-03T01:24:22;3.90;95.50
292;DHT22;23311;48.776;9.162;2023-04-03T01:26:53;3.80;95.50
292;DHT22;23311;48.776;9.162;2023-04-03T01:29:22;3.80;95.50
292;DHT22;23311;48.776;9.162;2023-04-03T01:31:53;3.80;95.50
292;DHT22;23311;48.776;9.162;2023-04-03T01:34:22;3.80;95.50
292;DHT22;23311;48.776;9.162;2023-04-03T01:36:51;3.70;95.50
292;DHT22;23311;48.776;9.162;2023-04-03T01:39:20;3.70;95.50
292;DHT22;23311;48.776;9.162;2023-04-03T01:41:49;3.70;95.50
292;DHT22;23311;48.776;9.162;2023-04-03T01:44:17;3.70;95.50
292;DHT22;23311;48.776;9.162;2023-04-03T01:46:45;3.80;95.50
292;DHT22;23311;48.776;9.162;2023-04-03T01:49:14;3.70;95.50
292;DHT22;23311;48.776;9.162;2023-04-03T01:51:43;3.70;95.50
292;DHT22;23311;48.776;9.162;2023-04-03T01:54:11;3.70;95.50
292;DHT22;23311;48.776;9.162;2023-04-03T01:56:39;3.70;95.50
292;DHT22;23311;48.776;9.162;2023-04-03T01:59:08;3.70;95.50
292;DHT22;23311;48.776;9.162;2023-04-03T02:01:36;3.70;95.50
292;DHT22;23311;48.776;9.162;2023-04-03T02:04:04;3.70;95.50
292;DHT22;23311;48.776;9.162;2023-04-03T02:06:34;3.70;95.50
292;DHT22;23311;48.776;9.162;2023-04-03T02:09:02;3.80;95.50
292;DHT22;23311;48.776;9.162;2023-04-03T02:11:31;3.80;95.50
292;DHT22;23311;48.776;9.162;2023-04-03T02:13:59;3.80;95.50
292;DHT22;23311;48.776;9.162;2023-04-03T02:16:27;3.80;95.50
292;DHT22;23311;48.776;9.162;2023-04-03T02:18:55;3.80;95.50
292;DHT22;23311;48.776;9.162;2023-04-03T02:21:24;3.80;95.50
292;DHT22;23311;48.776;9.162;2023-04-03T02:23:53;3.80;95.50
292;DHT22;23311;48.776;9.162;2023-04-03T02:26:21;3.80;95.50
292;DHT22;23311;48.776;9.162;2023-04-03T02:28:49;3.80;95.50
292;DHT22;23311;48.776;9.162;2023-04-03T02:31:18;3.80;95.50
292;DHT22;23311;48.776;9.162;2023-04-03T02:33:46;3.80;95.50
292;DHT22;23311;48.776;9.162;2023-04-03T02:36:14;3.90;95.50
292;DHT22;23311;48.776;9.162;2023-04-03T02:38:42;3.90;95.50
292;DHT22;23311;48.776;9.162;2023-04-03T02:41:12;3.90;95.50
292;DHT22;23311;48.776;9.162;2023-04-03T02:43:40;3.90;95.50
292;DHT22;23311;48.776;9.162;2023-04-03T02:46:08;3.90;95.50
292;DHT22;23311;48.776;9.162;2023-04-03T02:48:37;3.90;95.50
292;DHT22;23311;48.776;9.162;2023-04-03T02:51:05;3.90;95.50
292;DHT22;23311;48.776;9.162;2023-04-03T02:53:33;3.90;95.50
292;DHT22;23311;48.776;9.162;2023-04-03T02:56:01;3.90;95.50
292;DHT22;23311;48.776;9.162;2023-04-03T02:58:30;3.90;95.50
292;DHT22;23311;48.776;9.162;2023-04-03T03:00:58;3.90;95.50
292;DHT22;23311;48.776;9.162;2023-04-03T03:03:26;3.90;95.50
292;DHT22;23311;48.776;9.162;2023-04-03T03:06:01;3.90;95.50
292;DHT22;23311;48.776;9.162;2023-04-03T03:08:30;3.90;95.50
292;DHT22;23311;48.776;9.162;2023-04-03T03:10:58;4.00;95.50
292;DHT22;23311;48.776;9.162;2023-04-03T03:13:26;4.00;95.50
292;DHT22;23311;48.776;9.162;2023-04-03T03:15:56;3.90;95.50
292;DHT22;23311;48.776;9.162;2023-04-03T03:18:24;3.90;95.50
292;DHT22;23311;48.776;9.162;2023-04-03T03:20:52;3.80;95.50
292;DHT22;23311;48.776;9.162;2023-04-03T03:23:21;3.80;95.50
292;DHT22;23311;48.776;9.162;2023-04-03T03:25:54;3.90;95.50
292;DHT22;23311;48.776;9.162;2023-04-03T03:28:23;3.90;95.50
292;DHT22;23311;48.776;9.162;2023-04-03T03:30:51;3.90;95.50
292;DHT22;23311;48.776;9.162;2023-04-03T03:33:21;3.90;95.50
292;DHT22;23311;48.776;9.162;2023-04-03T03:35:52;3.90;95.50
292;DHT22;23311;48.776;9.162;2023-04-03T03:38:20;3.90;95.50
292;DHT22;23311;48.776;9.162;2023-04-03T03:40:49;3.90;95.50
292;DHT22;23311;48.776;9.162;2023-04-03T03:43:18;3.80;95.50
292;DHT22;23311;48.776;9.162;2023-04-03T03:45:50;3.80;95.50
292;DHT22;23311;48.776;9.162;2023-04-03T03:48:18;3.80;95.50
292;DHT22;23311;48.776;9.162;2023-04-03T03:50:49;3.90;95.50
292;DHT22;23311;48.776;9.162;2023-04-03T03:53:17;3.90;95.50
292;DHT22;23311;48.776;9.162;2023-04-03T03:55:46;3.80;95.50
292;DHT22;23311;48.776;9.162;2023-04-03T03:58:14;3.80;95.50
292;DHT22;23311;48.776;9.162;2023-04-03T04:00:42;3.80;95.50
292;DHT22;23311;48.776;9.162;2023-04-03T04:03:10;3.80;95.50
292;DHT22;23311;48.776;9.162;2023-04-03T04:05:38;3.80;95.50
292;DHT22;23311;48.776;9.162;2023-04-03T04:08:07;3.90;95.50
292;DHT22;23311;48.776;9.162;2023-04-03T04:10:36;3.90;95.50
292;DHT22;23311;48.776;9.162;2023-04-03T04:13:05;3.90;95.50
292;DHT22;23311;48.776;9.162;2023-04-03T04:15:33;4.00;95.50
292;DHT22;23311;48.776;9.162;2023-04-03T04:18:02;4.00;95.50
292;DHT22;23311;48.776;9.162;2023-04-03T04:20:30;4.10;95.50
292;DHT22;23311;48.776;9.162;2023-04-03T04:22:58;4.10;95.50
292;DHT22;23311;48.776;9.162;2023-04-03T04:25:27;4.10;95.50
292;DHT22;23311;48.776;9.162;2023-04-03T04:27:55;4.10;95.50
292;DHT22;23311;48.776;9.162;2023-04-03T04:30:23;4.10;95.50
292;DHT22;23311;48.776;9.162;2023-04-03T04:32:51;4.00;95.50
292;DHT22;23311;48.776;9.162;2023-04-03T04:35:19;4.10;95.50
292;DHT22;23311;48.776;9.162;2023-04-03T04:37:48;4.10;95.50
292;DHT22;23311;48.776;9.162;2023-04-03T04:40:17;4.10;95.50
292;DHT22;23311;48.776;9.162;2023-04-03T04:42:46;4.10;95.30
292;DHT22;23311;48.776;9.162;2023-04-03T04:45:14;4.10;95.10
292;DHT22;23311;48.776;9.162;2023-04-03T04:47:42;4.10;95.00
292;DHT22;23311;48.776;9.162;2023-04-03T04:50:11;4.10;95.10
292;DHT22;23311;48.776;9.162;2023-04-03T04:52:39;4.00;95.30
292;DHT22;23311;48.776;9.162;2023-04-03T04:55:08;4.00;95.30
292;DHT22;23311;48.776;9.162;2023-04-03T04:57:36;3.90;95.40
292;DHT22;23311;48.776;9.162;2023-04-03T05:00:08;3.90;95.40
292;DHT22;23311;48.776;9.162;2023-04-03T05:02:36;4.00;95.40
292;DHT22;23311;48.776;9.162;2023-04-03T05:05:04;4.00;94.30
292;DHT22;23311;48.776;9.162;2023-04-03T05:07:32;4.00;94.20
292;DHT22;23311;48.776;9.162;2023-04-03T05:10:02;4.10;94.00
292;DHT22;23311;48.776;9.162;2023-04-03T05:12:30;4.10;94.00
292;DHT22;23311;48.776;9.162;2023-04-03T05:14:58;4.20;93.90
292;DHT22;23311;48.776;9.162;2023-04-03T05:17:28;4.20;93.30
292;DHT22;23311;48.776;9.162;2023-04-03T05:19:56;4.20;93.00
292;DHT22;23311;48.776;9.162;2023-04-03T05:22:24;4.30;93.20
292;DHT22;23311;48.776;9.162;2023-04-03T05:24:52;4.30;93.50
292;DHT22;23311;48.776;9.162;2023-04-03T05:27:20;4.30;93.60
292;DHT22;23311;48.776;9.162;2023-04-03T05:29:50;4.30;93.30
292;DHT22;23311;48.776;9.162;2023-04-03T05:32:18;4.30;93.20
292;DHT22;23311;48.776;9.162;2023-04-03T05:34:48;4.30;93.20
292;DHT22;23311;48.776;9.162;2023-04-03T05:37:16;4.30;93.50
292;DHT22;23311;48.776;9.162;2023-04-03T05:39:44;4.30;93.70
292;DHT22;23311;48.776;9.162;2023-04-03T05:42:13;4.40;93.80
292;DHT22;23311;48.776;9.162;2023-04-03T05:44:41;4.40;93.80
292;DHT22;23311;48.776;9.162;2023-04-03T05:47:10;4.50;93.70
292;DHT22;23311;48.776;9.162;2023-04-03T05:49:38;4.50;93.60
292;DHT22;23311;48.776;9.162;2023-04-03T05:52:13;4.50;93.40
292;DHT22;23311;48.776;9.162;2023-04-03T05:54:45;4.50;93.50
292;DHT22;23311;48.776;9.162;2023-04-03T05:57:15;4.50;93.30
292;DHT22;23311;48.776;9.162;2023-04-03T05:59:44;4.40;93.40
292;DHT22;23311;48.776;9.162;2023-04-03T06:02:14;4.50;93.10
292;DHT22;23311;48.776;9.162;2023-04-03T06:04:43;4.50;92.90
292;DHT22;23311;48.776;9.162;2023-04-03T06:07:14;4.50;92.80
292;DHT22;23311;48.776;9.162;2023-04-03T06:09:43;4.50;93.10
292;DHT22;23311;48.776;9.162;2023-04-03T06:12:11;4.50;92.70
292;DHT22;23311;48.776;9.162;2023-04-03T06:14:39;4.70;92.70
292;DHT22;23311;48.776;9.162;2023-04-03T06:17:07;4.80;92.30
292;DHT22;23311;48.776;9.162;2023-04-03T06:19:36;4.80;92.30
292;DHT22;23311;48.776;9.162;2023-04-03T06:22:04;4.80;91.90
292;DHT22;23311;48.776;9.162;2023-04-03T06:24:34;4.80;92.00
292;DHT22;23311;48.776;9.162;2023-04-03T06:27:02;4.80;92.30
292;DHT22;23311;48.776;9.162;2023-04-03T06:29:30;4.90;92.10
292;DHT22;23311;48.776;9.162;2023-04-03T06:32:05;5.00;92.40
292;DHT22;23311;48.776;9.162;2023-04-03T06:34:35;5.10;92.20
292;DHT22;23311;48.776;9.162;2023-04-03T06:37:04;5.30;92.00
292;DHT22;23311;48.776;9.162;2023-04-03T06:39:33;5.40;91.30
292;DHT22;23311;48.776;9.162;2023-04-03T06:42:01;5.20;91.40
292;DHT22;23311;48.776;9.162;2023-04-03T06:44:29;5.20;92.10
292;DHT22;23311;48.776;9.162;2023-04-03T06:46:57;5.20;91.80
292;DHT22;23311;48.776;9.162;2023-04-03T06:49:26;5.20;91.80
292;DHT22;23311;48.776;9.162;2023-04-03T06:51:54;5.30;92.10
292;DHT22;23311;48.776;9.162;2023-04-03T06:54:23;5.30;91.70
292;DHT22;23311;48.776;9.162;2023-04-03T06:56:52;5.40;91.50
292;DHT22;23311;48.776;9.162;2023-04-03T06:59:21;5.20;91.80
292;DHT22;23311;48.776;9.162;2023-04-03T07:01:49;5.30;91.90
292;DHT22;23311;48.776;9.162;2023-04-03T07:04:18;5.30;92.10
292;DHT22;23311;48.776;9.162;2023-04-03T07:06:47;5.40;92.00
292;DHT22;23311;48.776;9.162;2023-04-03T07:09:15;5.50;91.70
292;DHT22;23311;48.776;9.162;2023-04-03T07:11:43;5.50;91.70
292;DHT22;23311;48.776;9.162;2023-04-03T07:14:13;5.50;91.70
292;DHT22;23311;48.776;9.162;2023-04-03T07:16:41;5.50;91.90
292;DHT22;23311;48.776;9.162;2023-04-03T07:19:10;5.70;91.50
292;DHT22;23311;48.776;9.162;2023-04-03T07:21:38;5.90;91.00
292;DHT22;23311;48.776;9.162;2023-04-03T07:24:07;5.80;90.90
292;DHT22;23311;48.776;9.162;2023-04-03T07:26:41;5.90;90.90
292;DHT22;23311;48.776;9.162;2023-04-03T07:29:09;6.10;90.70
292;DHT22;23311;48.776;9.162;2023-04-03T07:31:40;5.90;90.40
292;DHT22;23311;48.776;9.162;2023-04-03T07:34:08;6.10;90.60
292;DHT22;23311;48.776;9.162;2023-04-03T07:36:37;6.30;90.60
292;DHT22;23311;48.776;9.162;2023-04-03T07:39:05;6.50;89.90
292;DHT22;23311;48.776;9.162;2023-04-03T07:41:34;6.80;89.10
292;DHT22;23311;48.776;9.162;2023-04-03T07:44:02;6.80;89.00
292;DHT22;23311;48.776;9.162;2023-04-03T07:46:31;6.90;88.10
292;DHT22;23311;48.776;9.162;2023-04-03T07:49:01;6.80;88.30
292;DHT22;23311;48.776;9.162;2023-04-03T07:51:29;6.70;88.20
292;DHT22;23311;48.776;9.162;2023-04-03T07:53:57;6.40;89.40
292;DHT22;23311;48.776;9.162;2023-04-03T07:56:25;6.80;89.40
292;DHT22;23311;48.776;9.162;2023-04-03T07:58:54;6.80;88.40
292;DHT22;23311;48.776;9.162;2023-04-03T08:01:22;7.00;88.60
292;DHT22;23311;48.776;9.162;2023-04-03T08:03:50;6.90;88.60
292;DHT22;23311;48.776;9.162;2023-04-03T08:06:20;6.70;88.70
292;DHT22;23311;48.776;9.162;2023-04-03T08:09:08;6.60;89.10
292;DHT22;23311;48.776;9.162;2023-04-03T08:11:38;6.70;88.90
292;DHT22;23311;48.776;9.162;2023-04-03T08:14:06;6.60;89.80
292;DHT22;23311;48.776;9.162;2023-04-03T08:16:34;6.60;89.70
292;DHT22;23311;48.776;9.162;2023-04-03T08:19:02;7.00;89.30
292;DHT22;23311;48.776;9.162;2023-04-03T08:21:36;7.00;88.90
292;DHT22;23311;48.776;9.162;2023-04-03T08:24:07;7.00;88.90
292;DHT22;23311;48.776;9.162;2023-04-03T08:26:36;7.10;89.10
292;DHT22;23311;48.776;9.162;2023-04-03T08:29:04;6.80;89.20
292;DHT22;23311;48.776;9.162;2023-04-03T08:31:32;6.80;89.40
292;DHT22;23311;48.776;9.162;2023-04-03T08:34:00;7.10;88.80
292;DHT22;23311;48.776;9.162;2023-04-03T08:36:29;6.60;89.80
292;DHT22;23311;48.776;9.162;2023-04-03T08:38:59;7.10;89.40
292;DHT22;23311;48.776;9.162;2023-04-03T08:41:29;6.90;89.10
292;DHT22;23311;48.776;9.162;2023-04-03T08:44:11;6.90;89.00
292;DHT22;23311;48.776;9.162;2023-04-03T08:46:52;6.90;89.50
292;DHT22;23311;48.776;9.162;2023-04-03T08:49:28;7.00;89.40
292;DHT22;23311;48.776;9.162;2023-04-03T08:51:59;7.60;88.10
292;DHT22;23311;48.776;9.162;2023-04-03T08:54:33;7.90;86.70
292;DHT22;23311;48.776;9.162;2023-04-03T08:57:03;7.90;86.40
292;DHT22;23311;48.776;9.162;2023-04-03T08:59:34;7.60;87.00
292;DHT22;23311;48.776;9.162;2023-04-03T09:02:11;7.50;87.20
292;DHT22;23311;48.776;9.162;2023-04-03T09:04:43;7.40;87.70
292;DHT22;23311;48.776;9.162;2023-04-03T09:07:18;7.90;87.20
292;DHT22;23311;48.776;9.162;2023-04-03T09:09:51;8.30;85.60
292;DHT22;23311;48.776;9.162;2023-04-03T09:12:23;7.80;86.10
292;DHT22;23311;48.776;9.162;2023-04-03T09:14:59;7.90;86.40
292;DHT22;23311;48.776;9.162;2023-04-03T09:17:41;8.00;85.90
292;DHT22;23311;48.776;9.162;2023-04-03T09:20:17;8.00;85.90
292;DHT22;23311;48.776;9.162;2023-04-03T09:22:47;8.20;85.70
292;DHT22;23311;48.776;9.162;2023-04-03T09:25:22;8.40;84.60
292;DHT22;23311;48.776;9.162;2023-04-03T09:27:51;8.40;83.70
292;DHT22;23311;48.776;9.162;2023-04-03T09:30:21;8.10;83.90
292;DHT22;23311;48.776;9.162;2023-04-03T09:32:51;7.90;84.90
292;DHT22;23311;48.776;9.162;2023-04-03T09:35:23;7.90;85.60
292;DHT22;23311;48.776;9.162;2023-04-03T09:38:16;7.80;85.90
292;DHT22;23311;48.776;9.162;2023-04-03T09:40:48;7.60;86.60
292;DHT22;23311;48.776;9.162;2023-04-03T09:43:23;7.50;86.70
292;DHT22;23311;48.776;9.162;2023-04-03T09:45:53;7.30;86.80
292;DHT22;23311;48.776;9.162;2023-04-03T09:48:23;7.20;87.30
292;DHT22;23311;48.776;9.162;2023-04-03T09:51:01;7.50;87.00
292;DHT22;23311;48.776;9.162;2023-04-03T09:53:33;7.50;86.30
292;DHT22;23311;48.776;9.162;2023-04-03T09:56:05;7.50;85.80
292;DHT22;23311;48.776;9.162;2023-04-03T09:58:48;7.50;85.20
292;DHT22;23311;48.776;9.162;2023-04-03T10:01:27;7.60;84.10
292;DHT22;23311;48.776;9.162;2023-04-03T10:04:08;7.50;84.40
292;DHT22;23311;48.776;9.162;2023-04-03T10:06:38;7.30;85.30
292;DHT22;23311;48.776;9.162;2023-04-03T10:09:21;7.30;85.70
292;DHT22;23311;48.776;9.162;2023-04-03T10:12:02;7.40;85.70
292;DHT22;23311;48.776;9.162;2023-04-03T10:14:32;7.20;85.20
292;DHT22;23311;48.776;9.162;2023-04-03T10:17:15;7.20;86.10
292;DHT22;23311;48.776;9.162;2023-04-03T10:19:48;7.50;85.60
292;DHT22;23311;48.776;9.162;2023-04-03T10:22:21;7.60;85.00
292;DHT22;23311;48.776;9.162;2023-04-03T10:25:02;7.80;84.40
292;DHT22;23311;48.776;9.162;2023-04-03T10:27:44;8.20;83.30
292;DHT22;23311;48.776;9.162;2023-04-03T10:30:36;8.10;82.60
292;DHT22;23311;48.776;9.162;2023-04-03T10:33:20;8.30;82.70
292;DHT22;23311;48.776;9.162;2023-04-03T10:35:59;8.60;81.20
292;DHT22;23311;48.776;9.162;2023-04-03T10:38:34;8.70;80.80
292;DHT22;23311;48.776;9.162;2023-04-03T10:41:10;8.10;81.90
292;DHT22;23311;48.776;9.162;2023-04-03T10:43:49;8.10;82.40
292;DHT22;23311;48.776;9.162;2023-04-03T10:46:24;7.90;82.30
292;DHT22;23311;48.776;9.162;2023-04-03T10:49:06;7.80;83.00
292;DHT22;23311;48.776;9.162;2023-04-03T10:51:41;7.80;83.00
292;DHT22;23311;48.776;9.162;2023-04-03T10:54:12;7.80;83.30
292;DHT22;23311;48.776;9.162;2023-04-03T10:56:44;8.20;82.30
292;DHT22;23311;48.776;9.162;2023-04-03T10:59:31;8.20;81.50
292;DHT22;23311;48.776;9.162;2023-04-03T11:02:01;7.90;81.60
292;DHT22;23311;48.776;9.162;2023-04-03T11:04:35;8.20;81.70
292;DHT22;23311;48.776;9.162;2023-04-03T11:07:09;8.00;81.80
292;DHT22;23311;48.776;9.162;2023-04-03T11:09:41;8.00;81.40
292;DHT22;23311;48.776;9.162;2023-04-03T11:12:13;7.90;81.30
292;DHT22;23311;48.776;9.162;2023-04-03T11:14:47;7.90;81.20
292;DHT22;23311;48.776;9.162;2023-04-03T11:17:23;7.90;80.70
292;DHT22;23311;48.776;9.162;2023-04-03T11:20:01;7.70;80.20
292;DHT22;23311;48.776;9.162;2023-04-03T11:22:36;8.00;80.30
292;DHT22;23311;48.776;9.162;2023-04-03T11:25:15;8.20;79.40
292;DHT22;23311;48.776;9.162;2023-04-03T11:27:50;8.30;78.70
292;DHT22;23311;48.776;9.162;2023-04-03T11:30:23;8.00;79.10
292;DHT22;23311;48.776;9.162;2023-04-03T11:33:09;7.90;78.80
292;DHT22;23311;48.776;9.162;2023-04-03T11:35:43;8.00;78.70
292;DHT22;23311;48.776;9.162;2023-04-03T11:38:19;7.90;78.90
292;DHT22;23311;48.776;9.162;2023-04-03T11:40:49;7.90;79.60
292;DHT22;23311;48.776;9.162;2023-04-03T11:43:22;8.00;79.70
292;DHT22;23311;48.776;9.162;2023-04-03T11:45:56;7.80;79.70
292;DHT22;23311;48.776;9.162;2023-04-03T11:48:44;8.10;79.70
292;DHT22;23311;48.776;9.162;2023-04-03T11:51:45;8.10;79.40
292;DHT22;23311;48.776;9.162;2023-04-03T11:54:48;8.10;79.80
292;DHT22;23311;48.776;9.162;2023-04-03T11:57:49;8.30;78.90
292;DHT22;23311;48.776;9.162;2023-04-03T12:01:06;7.90;78.60
292;DHT22;23311;48.776;9.162;2023-04-03T12:04:07;8.00;79.60
292;DHT22;23311;48.776;9.162;2023-04-03T12:10:12;8.20;76.90
292;DHT22;23311;48.776;9.162;2023-04-03T12:12:58;8.30;76.80
292;DHT22;23311;48.776;9.162;2023-04-03T12:15:51;8.50;76.90
292;DHT22;23311;48.776;9.162;2023-04-03T12:18:53;8.40;77.30
292;DHT22;23311;48.776;9.162;2023-04-03T12:21:24;8.10;78.70
292;DHT22;23311;48.776;9.162;2023-04-03T12:23:59;8.00;78.40
292;DHT22;23311;48.776;9.162;2023-04-03T12:26:32;7.80;78.20
292;DHT22;23311;48.776;9.162;2023-04-03T12:29:17;7.90;78.80
292;DHT22;23311;48.776;9.162;2023-04-03T12:31:56;8.00;78.60
292;DHT22;23311;48.776;9.162;2023-04-03T12:34:45;8.30;77.80
292;DHT22;23311;48.776;9.162;2023-04-03T12:37:26;8.50;77.30
292;DHT22;23311;48.776;9.162;2023-04-03T12:40:07;8.70;77.10
292;DHT22;23311;48.776;9.162;2023-04-03T12:43:05;8.50;76.70
292;DHT22;23311;48.776;9.162;2023-04-03T12:45:41;8.10;77.60
292;DHT22;23311;48.776;9.162;2023-04-03T12:48:14;7.90;78.20
292;DHT22;23311;48.776;9.162;2023-04-03T12:50:46;8.00;78.10
292;DHT22;23311;48.776;9.162;2023-04-03T12:53:17;7.90;77.40
292;DHT22;23311;48.776;9.162;2023-04-03T12:55:46;7.30;77.90
292;DHT22;23311;48.776;9.162;2023-04-03T12:58:16;7.50;78.10
292;DHT22;23311;48.776;9.162;2023-04-03T13:01:00;8.00;77.30
292;DHT22;23311;48.776;9.162;2023-04-03T13:03:29;8.30;76.40
292;DHT22;23311;48.776;9.162;2023-04-03T13:06:01;8.60;76.10
292;DHT22;23311;48.776;9.162;2023-04-03T13:08:30;9.00;75.80
292;DHT22;23311;48.776;9.162;2023-04-03T13:11:02;9.30;75.10
292;DHT22;23311;48.776;9.162;2023-04-03T13:13:30;9.20;74.00
292;DHT22;23311;48.776;9.162;2023-04-03T13:15:59;9.50;74.30
292;DHT22;23311;48.776;9.162;2023-04-03T13:18:30;9.90;72.90
292;DHT22;23311;48.776;9.162;2023-04-03T13:21:03;10.00;72.00
292;DHT22;23311;48.776;9.162;2023-04-03T13:23:34;9.90;71.50
292;DHT22;23311;48.776;9.162;2023-04-03T13:26:04;9.80;71.30
292;DHT22;23311;48.776;9.162;2023-04-03T13:28:33;9.40;71.80
292;DHT22;23311;48.776;9.162;2023-04-03T13:31:07;9.30;72.90
292;DHT22;23311;48.776;9.162;2023-04-03T13:33:38;9.10;73.80
292;DHT22;23311;48.776;9.162;2023-04-03T13:36:17;9.20;74.10
292;DHT22;23311;48.776;9.162;2023-04-03T13:38:46;9.00;73.20
292;DHT22;23311;48.776;9.162;2023-04-03T13:41:26;8.80;74.30
292;DHT22;23311;48.776;9.162;2023-04-03T13:43:57;8.60;73.80
292;DHT22;23311;48.776;9.162;2023-04-03T13:46:42;8.80;73.90
292;DHT22;23311;48.776;9.162;2023-04-03T13:49:22;9.10;73.00
292;DHT22;23311;48.776;9.162;2023-04-03T13:51:52;9.60;72.10
292;DHT22;23311;48.776;9.162;2023-04-03T13:54:35;10.20;70.00
292;DHT22;23311;48.776;9.162;2023-04-03T13:57:12;10.20;69.40
292;DHT22;23311;48.776;9.162;2023-04-03T13:59:42;10.00;69.50
292;DHT22;23311;48.776;9.162;2023-04-03T14:02:15;10.00;69.90
292;DHT22;23311;48.776;9.162;2023-04-03T14:04:47;10.20;69.20
292;DHT22;23311;48.776;9.162;2023-04-03T14:07:17;10.50;68.50
292;DHT22;23311;48.776;9.162;2023-04-03T14:09:47;10.00;68.80
292;DHT22;23311;48.776;9.162;2023-04-03T14:12:18;9.50;70.40
292;DHT22;23311;48.776;9.162;2023-04-03T14:14:57;9.70;71.10
292;DHT22;23311;48.776;9.162;2023-04-03T14:17:26;9.60;70.90
292;DHT22;23311;48.776;9.162;2023-04-03T14:19:56;9.00;71.60
292;DHT22;23311;48.776;9.162;2023-04-03T14:22:28;8.80;72.80
292;DHT22;23311;48.776;9.162;2023-04-03T14:24:56;9.00;72.70
292;DHT22;23311;48.776;9.162;2023-04-03T14:27:27;9.10;72.20
292;DHT22;23311;48.776;9.162;2023-04-03T14:29:57;9.30;72.00
292;DHT22;23311;48.776;9.162;2023-04-03T14:32:26;9.20;71.40
292;DHT22;23311;48.776;9.162;2023-04-03T14:34:55;8.90;71.60
292;DHT22;23311;48.776;9.162;2023-04-03T14:37:27;8.60;72.70
292;DHT22;23311;48.776;9.162;2023-04-03T14:39:57;8.50;72.70
292;DHT22;23311;48.776;9.162;2023-04-03T14:42:27;8.40;73.10
292;DHT22;23311;48.776;9.162;2023-04-03T14:44:56;8.90;72.60
292;DHT22;23311;48.776;9.162;2023-04-03T14:47:26;10.10;70.60
292;DHT22;23311;48.776;9.162;2023-04-03T14:49:59;10.80;68.50
292;DHT22;23311;48.776;9.162;2023-04-03T14:52:31;11.00;67.40
292;DHT22;23311;48.776;9.162;2023-04-03T14:55:00;10.10;68.00
292;DHT22;23311;48.776;9.162;2023-04-03T14:57:29;9.70;69.00
292;DHT22;23311;48.776;9.162;2023-04-03T14:59:58;9.60;69.70
292;DHT22;23311;48.776;9.162;2023-04-03T15:02:30;9.60;69.30
292;DHT22;23311;48.776;9.162;2023-04-03T15:05:03;9.20;69.30
292;DHT22;23311;48.776;9.162;2023-04-03T15:07:35;9.00;70.10
292;DHT22;23311;48.776;9.162;2023-04-03T15:10:13;9.10;70.40
292;DHT22;23311;48.776;9.162;2023-04-03T15:12:43;9.20;70.10
292;DHT22;23311;48.776;9.162;2023-04-03T15:15:11;9.20;69.70
292;DHT22;23311;48.776;9.162;2023-04-03T15:17:39;8.60;70.30
292;DHT22;23311;48.776;9.162;2023-04-03T15:20:12;8.70;70.90
292;DHT22;23311;48.776;9.162;2023-04-03T15:22:42;8.60;71.00
292;DHT22;23311;48.776;9.162;2023-04-03T15:25:10;8.70;70.70
292;DHT22;23311;48.776;9.162;2023-04-03T15:27:38;8.90;69.90
292;DHT22;23311;48.776;9.162;2023-04-03T15:30:11;9.20;70.00
292;DHT22;23311;48.776;9.162;2023-04-03T15:32:40;9.20;69.30
292;DHT22;23311;48.776;9.162;2023-04-03T15:35:08;9.00;67.40
292;DHT22;23311;48.776;9.162;2023-04-03T15:37:37;8.90;68.10
292;DHT22;23311;48.776;9.162;2023-04-03T15:40:07;8.70;69.00
292;DHT22;23311;48.776;9.162;2023-04-03T15:42:36;8.50;69.50
292;DHT22;23311;48.776;9.162;2023-04-03T15:45:05;8.30;70.20
292;DHT22;23311;48.776;9.162;2023-04-03T15:47:33;7.90;71.00
292;DHT22;23311;48.776;9.162;2023-04-03T15:50:02;7.50;72.00
292;DHT22;23311;48.776;9.162;2023-04-03T15:52:32;7.40;72.10
292;DHT22;23311;48.776;9.162;2023-04-03T15:55:01;7.40;72.20
292;DHT22;23311;48.776;9.162;2023-04-03T15:57:30;7.90;71.90
292;DHT22;23311;48.776;9.162;2023-04-03T16:00:04;8.60;70.30
292;DHT22;23311;48.776;9.162;2023-04-03T16:02:34;9.10;69.20
292;DHT22;23311;48.776;9.162;2023-04-03T16:05:02;9.70;67.90
292;DHT22;23311;48.776;9.162;2023-04-03T16:07:32;10.00;67.10
292;DHT22;23311;48.776;9.162;2023-04-03T16:10:00;10.10;66.40
292;DHT22;23311;48.776;9.162;2023-04-03T16:12:31;10.50;66.00
292;DHT22;23311;48.776;9.162;2023-04-03T16:14:59;10.80;65.70
292;DHT22;23311;48.776;9.162;2023-04-03T16:17:28;10.90;65.30
292;DHT22;23311;48.776;9.162;2023-04-03T16:19:57;11.00;64.60
292;DHT22;23311;48.776;9.162;2023-04-03T16:22:28;10.60;65.20
292;DHT22;23311;48.776;9.162;2023-04-03T16:24:58;9.80;65.70
292;DHT22;23311;48.776;9.162;2023-04-03T16:27:27;9.00;66.50
292;DHT22;23311;48.776;9.162;2023-04-03T16:29:58;8.70;67.70
292;DHT22;23311;48.776;9.162;2023-04-03T16:32:29;8.40;68.80
292;DHT22;23311;48.776;9.162;2023-04-03T16:34:58;8.10;69.40
292;DHT22;23311;48.776;9.162;2023-04-03T16:37:31;7.80;69.50
292;DHT22;23311;48.776;9.162;2023-04-03T16:39:59;7.50;70.00
292;DHT22;23311;48.776;9.162;2023-04-03T16:42:27;7.50;70.20
292;DHT22;23311;48.776;9.162;2023-04-03T16:44:55;7.50;69.60
292;DHT22;23311;48.776;9.162;2023-04-03T16:47:27;7.40;69.90
292;DHT22;23311;48.776;9.162;2023-04-03T16:49:55;7.90;69.60
292;DHT22;23311;48.776;9.162;2023-04-03T16:52:31;8.30;69.00